Terminal Aerodrome Forecast
Issued by NWS Kansas City/Pleasant Hill, MO

Home | Current Version | Previous Version | Text Only | Print | Product List | Glossary On
Versions: 1 2 3 4 5 6 7 8 9 10 11 12 13 14 15 16 17 18
000
FTUS43 KEAX 172320
TAFMCI
TAF
KMCI 172320Z 1800/1824 16007KT P6SM BKN200
      TEMPO 1802/1804 5SM BR BKN018
     FM180400 VRB05KT 5SM BR OVC012
      TEMPO 1806/1808 BKN007
     FM180800 34015G25KT P6SM VCSH OVC007
     FM181200 34018G28KT 6SM -RA BR BKN010
     FM181800 33022G30KT P6SM BKN050=

USA.gov is the U.S. government's official web portal to all federal, state and local government web resources and services.